sensor_id;sensor_type;location;lat;lon;timestamp;pressure;altitude;pressure_sealevel;temperature;humidity
28911;BME280;16028;42.642;23.310;2023-04-23T00:01:06;93953.19;;;8.94;86.04
28911;BME280;16028;42.642;23.310;2023-04-23T00:03:33;93952.50;;;8.92;86.24
28911;BME280;16028;42.642;23.310;2023-04-23T00:06:04;93949.91;;;8.92;86.36
28911;BME280;16028;42.642;23.310;2023-04-23T00:08:32;93956.06;;;8.91;85.96
28911;BME280;16028;42.642;23.310;2023-04-23T00:11:01;93949.25;;;8.90;86.20
28911;BME280;16028;42.642;23.310;2023-04-23T00:13:28;93951.31;;;8.86;86.28
28911;BME280;16028;42.642;23.310;2023-04-23T00:15:55;93950.22;;;8.79;86.48
28911;BME280;16028;42.642;23.310;2023-04-23T00:18:22;93953.91;;;8.77;86.66
28911;BME280;16028;42.642;23.310;2023-04-23T00:20:49;93947.75;;;8.78;86.78
28911;BME280;16028;42.642;23.310;2023-04-23T00:23:16;93946.13;;;8.77;87.13
28911;BME280;16028;42.642;23.310;2023-04-23T00:25:42;93953.63;;;8.80;87.80
28911;BME280;16028;42.642;23.310;2023-04-23T00:28:10;93954.56;;;8.79;87.16
28911;BME280;16028;42.642;23.310;2023-04-23T00:30:37;93943.53;;;8.77;87.56
28911;BME280;16028;42.642;23.310;2023-04-23T00:33:04;93946.41;;;8.74;87.46
28911;BME280;16028;42.642;23.310;2023-04-23T00:35:31;93943.38;;;8.69;87.60
28911;BME280;16028;42.642;23.310;2023-04-23T00:37:58;93943.38;;;8.69;88.42
28911;BME280;16028;42.642;23.310;2023-04-23T00:40:25;93938.19;;;8.69;88.32
28911;BME280;16028;42.642;23.310;2023-04-23T00:42:51;93943.81;;;8.74;88.40
28911;BME280;16028;42.642;23.310;2023-04-23T00:45:21;93945.69;;;8.72;88.07
28911;BME280;16028;42.642;23.310;2023-04-23T00:47:48;93945.69;;;8.72;87.91
28911;BME280;16028;42.642;23.310;2023-04-23T00:50:15;93935.88;;;8.66;87.85
28911;BME280;16028;42.642;23.310;2023-04-23T00:52:42;93943.13;;;8.62;87.66
28911;BME280;16028;42.642;23.310;2023-04-23T00:55:09;93936.59;;;8.58;87.97
28911;BME280;16028;42.642;23.310;2023-04-23T00:57:37;93940.81;;;8.59;88.75
28911;BME280;16028;42.642;23.310;2023-04-23T01:00:05;93941.50;;;8.61;87.86
28911;BME280;16028;42.642;23.310;2023-04-23T01:02:33;93946.81;;;8.60;87.63
28911;BME280;16028;42.642;23.310;2023-04-23T01:05:06;93948.72;;;8.58;87.96
28911;BME280;16028;42.642;23.310;2023-04-23T01:07:34;93950.63;;;8.56;87.74
28911;BME280;16028;42.642;23.310;2023-04-23T01:10:03;93948.47;;;8.51;88.22
28911;BME280;16028;42.642;23.310;2023-04-23T01:12:30;93949.69;;;8.47;88.66
28911;BME280;16028;42.642;23.310;2023-04-23T01:14:57;93949.41;;;8.40;89.24
28911;BME280;16028;42.642;23.310;2023-04-23T01:17:24;93950.34;;;8.39;89.38
28911;BME280;16028;42.642;23.310;2023-04-23T01:19:53;93944.78;;;8.34;89.60
28911;BME280;16028;42.642;23.310;2023-04-23T01:22:21;93945.88;;;8.32;89.96
28911;BME280;16028;42.642;23.310;2023-04-23T01:24:48;93943.13;;;8.33;90.39
28911;BME280;16028;42.642;23.310;2023-04-23T01:27:16;93941.06;;;8.37;90.26
28911;BME280;16028;42.642;23.310;2023-04-23T01:29:44;93947.47;;;8.33;89.83
28911;BME280;16028;42.642;23.310;2023-04-23T01:32:12;93939.31;;;8.28;89.81
28911;BME280;16028;42.642;23.310;2023-04-23T01:34:40;93940.13;;;8.28;90.34
28911;BME280;16028;42.642;23.310;2023-04-23T01:37:08;93941.63;;;8.31;90.19
28911;BME280;16028;42.642;23.310;2023-04-23T01:39:37;93938.22;;;8.30;90.03
28911;BME280;16028;42.642;23.310;2023-04-23T01:42:04;93947.31;;;8.25;90.09
28911;BME280;16028;42.642;23.310;2023-04-23T01:44:31;93945.41;;;8.17;91.15
28911;BME280;16028;42.642;23.310;2023-04-23T01:46:58;93946.22;;;8.18;91.22
28911;BME280;16028;42.642;23.310;2023-04-23T01:49:25;93951.41;;;8.18;91.60
28911;BME280;16028;42.642;23.310;2023-04-23T01:51:52;93954.81;;;8.18;91.07
28911;BME280;16028;42.642;23.310;2023-04-23T01:54:19;93952.91;;;8.20;91.49
28911;BME280;16028;42.642;23.310;2023-04-23T01:56:47;93960.00;;;8.18;91.37
28911;BME280;16028;42.642;23.310;2023-04-23T01:59:14;93960.53;;;8.12;91.61
28911;BME280;16028;42.642;23.310;2023-04-23T02:01:42;93962.84;;;8.15;91.61
28911;BME280;16028;42.642;23.310;2023-04-23T02:04:11;93958.63;;;8.14;90.92
28911;BME280;16028;42.642;23.310;2023-04-23T02:06:38;93962.00;;;8.05;91.07
28911;BME280;16028;42.642;23.310;2023-04-23T02:09:04;93955.34;;;8.03;91.66
28911;BME280;16028;42.642;23.310;2023-04-23T02:11:31;93962.84;;;8.06;91.44
28911;BME280;16028;42.642;23.310;2023-04-23T02:14:00;93956.56;;;8.08;91.26
28911;BME280;16028;42.642;23.310;2023-04-23T02:16:30;93965.81;;;8.01;90.93
28911;BME280;16028;42.642;23.310;2023-04-23T02:18:57;93958.59;;;7.95;91.33
28911;BME280;16028;42.642;23.310;2023-04-23T02:21:24;93965.78;;;7.91;91.93
28911;BME280;16028;42.642;23.310;2023-04-23T02:23:51;93968.38;;;7.91;91.89
28911;BME280;16028;42.642;23.310;2023-04-23T02:26:18;93961.31;;;7.93;91.95
28911;BME280;16028;42.642;23.310;2023-04-23T02:28:47;93958.19;;;7.99;91.46
28911;BME280;16028;42.642;23.310;2023-04-23T02:31:15;93960.78;;;7.99;91.61
28911;BME280;16028;42.642;23.310;2023-04-23T02:33:42;93961.63;;;8.00;91.95
28911;BME280;16028;42.642;23.310;2023-04-23T02:36:09;93959.69;;;8.02;92.12
28911;BME280;16028;42.642;23.310;2023-04-23T02:38:36;93950.97;;;8.03;91.56
28911;BME280;16028;42.642;23.310;2023-04-23T02:41:05;93955.19;;;8.04;91.80
28911;BME280;16028;42.642;23.310;2023-04-23T02:43:32;93953.97;;;8.08;91.24
28911;BME280;16028;42.642;23.310;2023-04-23T02:45:59;93955.63;;;8.09;91.17
28911;BME280;16028;42.642;23.310;2023-04-23T02:48:35;93962.00;;;8.05;90.54
28911;BME280;16028;42.642;23.310;2023-04-23T02:51:01;93960.63;;;8.01;90.64
28911;BME280;16028;42.642;23.310;2023-04-23T02:53:28;93968.00;;;7.96;90.74
28911;BME280;16028;42.642;23.310;2023-04-23T02:55:55;93963.47;;;7.88;90.98
28911;BME280;16028;42.642;23.310;2023-04-23T02:58:22;93964.97;;;7.81;91.32
28911;BME280;16028;42.642;23.310;2023-04-23T03:00:49;93970.69;;;7.75;91.41
28911;BME280;16028;42.642;23.310;2023-04-23T03:03:15;93972.72;;;7.72;91.88
28911;BME280;16028;42.642;23.310;2023-04-23T03:05:44;93974.34;;;7.73;92.23
28911;BME280;16028;42.642;23.310;2023-04-23T03:08:10;93972.97;;;7.69;92.30
28911;BME280;16028;42.642;23.310;2023-04-23T03:10:37;93979.66;;;7.71;92.98
28911;BME280;16028;42.642;23.310;2023-04-23T03:13:04;93970.41;;;7.69;92.77
28911;BME280;16028;42.642;23.310;2023-04-23T03:15:31;93973.47;;;7.63;93.38
28911;BME280;16028;42.642;23.310;2023-04-23T03:17:57;93982.47;;;7.59;93.70
28911;BME280;16028;42.642;23.310;2023-04-23T03:20:26;93977.56;;;7.56;93.96
28911;BME280;16028;42.642;23.310;2023-04-23T03:22:54;93981.50;;;7.60;93.79
28911;BME280;16028;42.642;23.310;2023-04-23T03:25:21;93977.03;;;7.62;94.51
28911;BME280;16028;42.642;23.310;2023-04-23T03:27:50;93981.38;;;7.61;93.94
28911;BME280;16028;42.642;23.310;2023-04-23T03:30:17;93978.66;;;7.63;93.71
28911;BME280;16028;42.642;23.310;2023-04-23T03:32:43;93976.47;;;7.58;93.69
28911;BME280;16028;42.642;23.310;2023-04-23T03:35:10;93981.50;;;7.60;94.05
28911;BME280;16028;42.642;23.310;2023-04-23T03:37:37;93982.31;;;7.60;93.96
28911;BME280;16028;42.642;23.310;2023-04-23T03:40:06;93986.56;;;7.61;93.64
28911;BME280;16028;42.642;23.310;2023-04-23T03:42:34;93990.09;;;7.60;93.62
28911;BME280;16028;42.642;23.310;2023-04-23T03:45:01;93986.81;;;7.58;94.61
28911;BME280;16028;42.642;23.310;2023-04-23T03:47:28;93984.25;;;7.58;94.12
28911;BME280;16028;42.642;23.310;2023-04-23T03:49:55;93982.31;;;7.60;93.90
28911;BME280;16028;42.642;23.310;2023-04-23T03:52:22;93992.16;;;7.66;94.73
28911;BME280;16028;42.642;23.310;2023-04-23T03:54:48;93988.78;;;7.66;94.13
28911;BME280;16028;42.642;23.310;2023-04-23T03:57:17;93990.28;;;7.68;94.34
28911;BME280;16028;42.642;23.310;2023-04-23T03:59:43;93990.97;;;7.70;94.99
28911;BME280;16028;42.642;23.310;2023-04-23T04:02:10;94001.97;;;7.72;94.46
28911;BME280;16028;42.642;23.310;2023-04-23T04:04:37;93997.50;;;7.74;94.69
28911;BME280;16028;42.642;23.310;2023-04-23T04:07:03;93996.44;;;7.77;95.12
28911;BME280;16028;42.642;23.310;2023-04-23T04:09:31;94000.13;;;7.84;95.45
28911;BME280;16028;42.642;23.310;2023-04-23T04:11:58;94006.56;;;7.89;95.03
28911;BME280;16028;42.642;23.310;2023-04-23T04:14:26;93991.03;;;7.99;94.60
28911;BME280;16028;42.642;23.310;2023-04-23T04:16:53;93992.69;;;8.00;95.21
28911;BME280;16028;42.642;23.310;2023-04-23T04:19:19;93998.69;;;8.01;95.35
28911;BME280;16028;42.642;23.310;2023-04-23T04:21:46;93999.00;;;8.07;95.31
28911;BME280;16028;42.642;23.310;2023-04-23T04:24:13;93997.91;;;8.10;95.04
28911;BME280;16028;42.642;23.310;2023-04-23T04:26:40;93999.25;;;8.14;95.01
28911;BME280;16028;42.642;23.310;2023-04-23T04:29:06;94006.34;;;8.21;94.84
28911;BME280;16028;42.642;23.310;2023-04-23T04:31:36;94009.09;;;8.20;95.51
28911;BME280;16028;42.642;23.310;2023-04-23T04:34:03;94011.00;;;8.27;95.01
28911;BME280;16028;42.642;23.310;2023-04-23T04:36:31;94004.50;;;8.33;95.87
28911;BME280;16028;42.642;23.310;2023-04-23T04:38:59;94010.94;;;8.38;95.68
28911;BME280;16028;42.642;23.310;2023-04-23T04:41:27;94004.78;;;8.49;95.61
28911;BME280;16028;42.642;23.310;2023-04-23T04:43:54;94012.06;;;8.55;94.49
28911;BME280;16028;42.642;23.310;2023-04-23T04:46:22;94006.72;;;8.57;94.83
28911;BME280;16028;42.642;23.310;2023-04-23T04:48:52;94015.59;;;8.64;94.89
28911;BME280;16028;42.642;23.310;2023-04-23T04:51:20;94011.50;;;8.71;94.41
28911;BME280;16028;42.642;23.310;2023-04-23T04:53:47;94012.44;;;8.79;94.77
28911;BME280;16028;42.642;23.310;2023-04-23T04:56:13;94015.03;;;8.89;94.14
28911;BME280;16028;42.642;23.310;2023-04-23T04:58:40;94017.09;;;8.95;94.02
28911;BME280;16028;42.642;23.310;2023-04-23T05:01:07;94013.53;;;9.06;93.68
28911;BME280;16028;42.642;23.310;2023-04-23T05:03:35;94013.25;;;9.18;92.90
28911;BME280;16028;42.642;23.310;2023-04-23T05:06:05;94013.22;;;9.28;91.85
28911;BME280;16028;42.642;23.310;2023-04-23T05:08:31;94017.41;;;9.38;91.99
28911;BME280;16028;42.642;23.310;2023-04-23T05:10:59;94016.13;;;9.62;89.04
28911;BME280;16028;42.642;23.310;2023-04-23T05:13:26;94012.25;;;9.75;88.34
28911;BME280;16028;42.642;23.310;2023-04-23T05:15:53;94016.06;;;9.81;87.34
28911;BME280;16028;42.642;23.310;2023-04-23T05:18:19;94020.03;;;9.85;87.75
28911;BME280;16028;42.642;23.310;2023-04-23T05:20:46;94016.13;;;9.98;86.58
28911;BME280;16028;42.642;23.310;2023-04-23T05:23:14;94016.22;;;10.06;85.51
28911;BME280;16028;42.642;23.310;2023-04-23T05:25:41;94021.41;;;10.06;85.18
28911;BME280;16028;42.642;23.310;2023-04-23T05:28:08;94018.16;;;10.04;85.65
28911;BME280;16028;42.642;23.310;2023-04-23T05:30:34;94018.00;;;10.06;85.96
28911;BME280;16028;42.642;23.310;2023-04-23T05:33:01;94015.28;;;10.07;85.60
28911;BME280;16028;42.642;23.310;2023-04-23T05:35:28;94023.59;;;10.11;86.53
28911;BME280;16028;42.642;23.310;2023-04-23T05:37:56;94034.81;;;10.39;84.86
28911;BME280;16028;42.642;23.310;2023-04-23T05:40:24;94034.97;;;10.37;85.58
28911;BME280;16028;42.642;23.310;2023-04-23T05:42:51;94030.59;;;10.38;86.63
28911;BME280;16028;42.642;23.310;2023-04-23T05:45:17;94027.69;;;10.41;85.09
28911;BME280;16028;42.642;23.310;2023-04-23T05:47:45;94029.75;;;10.37;84.05
28911;BME280;16028;42.642;23.310;2023-04-23T05:50:12;94041.78;;;10.21;84.81
28911;BME280;16028;42.642;23.310;2023-04-23T05:52:38;94035.31;;;10.25;85.43
28911;BME280;16028;42.642;23.310;2023-04-23T05:55:06;94045.28;;;10.29;84.31
28911;BME280;16028;42.642;23.310;2023-04-23T05:57:35;94040.50;;;10.25;83.99
28911;BME280;16028;42.642;23.310;2023-04-23T06:00:03;94045.75;;;10.15;85.57
28911;BME280;16028;42.642;23.310;2023-04-23T06:02:33;94046.84;;;10.13;86.32
28911;BME280;16028;42.642;23.310;2023-04-23T06:05:00;94042.19;;;10.16;85.81
28911;BME280;16028;42.642;23.310;2023-04-23T06:07:27;94036.56;;;10.21;87.16
28911;BME280;16028;42.642;23.310;2023-04-23T06:09:54;94038.31;;;10.30;86.76
28911;BME280;16028;42.642;23.310;2023-04-23T06:12:20;94037.56;;;10.37;86.63
28911;BME280;16028;42.642;23.310;2023-04-23T06:14:48;94034.59;;;10.50;85.59
28911;BME280;16028;42.642;23.310;2023-04-23T06:17:15;94027.72;;;10.58;85.27
28911;BME280;16028;42.642;23.310;2023-04-23T06:19:42;94032.41;;;10.73;85.99
28911;BME280;16028;42.642;23.310;2023-04-23T06:22:09;94028.47;;;10.86;86.35
28911;BME280;16028;42.642;23.310;2023-04-23T06:24:35;94026.59;;;11.14;87.58
28911;BME280;16028;42.642;23.310;2023-04-23T06:27:02;94025.16;;;11.37;86.63
28911;BME280;16028;42.642;23.310;2023-04-23T06:29:29;94023.84;;;11.85;82.00
28911;BME280;16028;42.642;23.310;2023-04-23T06:32:00;94033.91;;;12.05;80.41
28911;BME280;16028;42.642;23.310;2023-04-23T06:34:27;94032.16;;;12.22;78.89
28911;BME280;16028;42.642;23.310;2023-04-23T06:36:54;94021.38;;;12.09;80.14
28911;BME280;16028;42.642;23.310;2023-04-23T06:39:21;94029.97;;;12.01;79.94
28911;BME280;16028;42.642;23.310;2023-04-23T06:41:48;94036.22;;;12.08;78.43
28911;BME280;16028;42.642;23.310;2023-04-23T06:44:14;94031.53;;;11.86;80.29
28911;BME280;16028;42.642;23.310;2023-04-23T06:46:41;94029.56;;;11.88;80.73
28911;BME280;16028;42.642;23.310;2023-04-23T06:49:09;94028.03;;;12.03;77.50
28911;BME280;16028;42.642;23.310;2023-04-23T06:51:36;94035.31;;;11.92;79.23
28911;BME280;16028;42.642;23.310;2023-04-23T06:54:03;94028.34;;;12.00;78.74
28911;BME280;16028;42.642;23.310;2023-04-23T06:56:30;94026.22;;;11.96;79.55
28911;BME280;16028;42.642;23.310;2023-04-23T06:58:56;94024.13;;;12.07;78.83
28911;BME280;16028;42.642;23.310;2023-04-23T07:01:23;94024.97;;;12.08;78.29
28911;BME280;16028;42.642;23.310;2023-04-23T07:03:50;94028.53;;;12.07;78.34
28911;BME280;16028;42.642;23.310;2023-04-23T07:06:20;94025.28;;;12.05;79.49
28911;BME280;16028;42.642;23.310;2023-04-23T07:08:46;94033.59;;;12.08;79.07
28911;BME280;16028;42.642;23.310;2023-04-23T07:11:13;94031.63;;;12.02;78.87
28911;BME280;16028;42.642;23.310;2023-04-23T07:13:41;94032.66;;;12.17;76.51
28911;BME280;16028;42.642;23.310;2023-04-23T07:16:07;94032.00;;;12.15;77.33
28911;BME280;16028;42.642;23.310;2023-04-23T07:18:34;94028.38;;;12.08;77.65
28911;BME280;16028;42.642;23.310;2023-04-23T07:21:01;94028.72;;;12.13;77.82
28911;BME280;16028;42.642;23.310;2023-04-23T07:23:29;94031.00;;;12.08;79.00
28911;BME280;16028;42.642;23.310;2023-04-23T07:25:56;94035.38;;;12.08;79.06
28911;BME280;16028;42.642;23.310;2023-04-23T07:28:22;94026.00;;;12.23;78.56
28911;BME280;16028;42.642;23.310;2023-04-23T07:30:49;94027.31;;;12.27;78.18
28911;BME280;16028;42.642;23.310;2023-04-23T07:33:16;94030.25;;;12.32;77.46
28911;BME280;16028;42.642;23.310;2023-04-23T07:35:43;94032.41;;;12.37;76.49
28911;BME280;16028;42.642;23.310;2023-04-23T07:38:10;94026.06;;;12.39;76.19
28911;BME280;16028;42.642;23.310;2023-04-23T07:40:38;94028.53;;;12.41;76.77
28911;BME280;16028;42.642;23.310;2023-04-23T07:43:05;94025.75;;;12.42;77.09
28911;BME280;16028;42.642;23.310;2023-04-23T07:45:31;94031.31;;;12.47;76.90
28911;BME280;16028;42.642;23.310;2023-04-23T07:47:58;94034.06;;;12.46;78.58
28911;BME280;16028;42.642;23.310;2023-04-23T07:50:26;94028.72;;;12.55;77.79
28911;BME280;16028;42.642;23.310;2023-04-23T07:52:53;94021.22;;;12.60;78.09
28911;BME280;16028;42.642;23.310;2023-04-23T07:55:20;94023.06;;;12.76;78.50
28911;BME280;16028;42.642;23.310;2023-04-23T07:57:48;94025.19;;;12.81;79.91
28911;BME280;16028;42.642;23.310;2023-04-23T08:00:15;94026.03;;;12.97;77.60
28911;BME280;16028;42.642;23.310;2023-04-23T08:02:42;94025.69;;;13.00;77.74
28911;BME280;16028;42.642;23.310;2023-04-23T08:05:09;94026.56;;;13.09;75.29
28911;BME280;16028;42.642;23.310;2023-04-23T08:07:36;94021.31;;;13.09;76.18
28911;BME280;16028;42.642;23.310;2023-04-23T08:10:03;94021.19;;;13.10;75.87
28911;BME280;16028;42.642;23.310;2023-04-23T08:12:31;94018.41;;;13.20;76.56
28911;BME280;16028;42.642;23.310;2023-04-23T08:15:01;94017.41;;;13.29;74.44
28911;BME280;16028;42.642;23.310;2023-04-23T08:17:31;94020.19;;;13.52;72.77
28911;BME280;16028;42.642;23.310;2023-04-23T08:19:58;94019.34;;;13.59;72.10
28911;BME280;16028;42.642;23.310;2023-04-23T08:22:25;94013.81;;;13.62;71.73
28911;BME280;16028;42.642;23.310;2023-04-23T08:24:51;94018.34;;;13.85;71.47
28911;BME280;16028;42.642;23.310;2023-04-23T08:27:18;94016.53;;;13.93;70.71
28911;BME280;16028;42.642;23.310;2023-04-23T08:29:45;94013.72;;;13.95;69.34
28911;BME280;16028;42.642;23.310;2023-04-23T08:32:13;94018.28;;;14.01;68.90
28911;BME280;16028;42.642;23.310;2023-04-23T08:34:40;94008.47;;;14.03;67.24
28911;BME280;16028;42.642;23.310;2023-04-23T08:37:06;94011.78;;;13.97;71.34
28911;BME280;16028;42.642;23.310;2023-04-23T08:39:33;94003.59;;;14.00;70.68
28911;BME280;16028;42.642;23.310;2023-04-23T08:42:09;94002.56;;;14.09;69.81
28911;BME280;16028;42.642;23.310;2023-04-23T08:44:40;94007.31;;;14.13;69.04
28911;BME280;16028;42.642;23.310;2023-04-23T08:47:10;93999.91;;;14.17;68.46
28911;BME280;16028;42.642;23.310;2023-04-23T08:49:40;93992.41;;;14.14;69.46
28911;BME280;16028;42.642;23.310;2023-04-23T08:52:14;94000.69;;;14.34;67.87
28911;BME280;16028;42.642;23.310;2023-04-23T08:54:47;93997.56;;;14.30;68.72
28911;BME280;16028;42.642;23.310;2023-04-23T08:57:15;93993.13;;;14.47;65.93
28911;BME280;16028;42.642;23.310;2023-04-23T08:59:43;93993.09;;;14.55;65.88
28911;BME280;16028;42.642;23.310;2023-04-23T09:02:10;93988.03;;;14.53;68.43
28911;BME280;16028;42.642;23.310;2023-04-23T09:04:40;93987.19;;;14.53;68.44
28911;BME280;16028;42.642;23.310;2023-04-23T09:07:07;93982.06;;;14.67;69.05
28911;BME280;16028;42.642;23.310;2023-04-23T09:09:36;93987.63;;;14.87;65.75
28911;BME280;16028;42.642;23.310;2023-04-23T09:12:04;93981.38;;;14.96;66.24
28911;BME280;16028;42.642;23.310;2023-04-23T09:14:31;93981.31;;;15.04;63.99
28911;BME280;16028;42.642;23.310;2023-04-23T09:16:58;93985.59;;;15.20;62.40
28911;BME280;16028;42.642;23.310;2023-04-23T09:19:26;93982.47;;;15.24;62.78
28911;BME280;16028;42.642;23.310;2023-04-23T09:21:55;93986.06;;;15.23;63.28
28911;BME280;16028;42.642;23.310;2023-04-23T09:24:23;93978.25;;;15.38;62.54
28911;BME280;16028;42.642;23.310;2023-04-23T09:26:51;93982.59;;;15.31;62.79
28911;BME280;16028;42.642;23.310;2023-04-23T09:29:18;93979.53;;;15.42;63.03
28911;BME280;16028;42.642;23.310;2023-04-23T09:31:48;93973.72;;;15.32;62.89
28911;BME280;16028;42.642;23.310;2023-04-23T09:34:16;93973.66;;;15.40;61.60
28911;BME280;16028;42.642;23.310;2023-04-23T09:36:44;93969.81;;;15.51;64.33
28911;BME280;16028;42.642;23.310;2023-04-23T09:39:13;93977.97;;;15.56;60.09
28911;BME280;16028;42.642;23.310;2023-04-23T09:41:40;93971.47;;;15.66;59.38
28911;BME280;16028;42.642;23.310;2023-04-23T09:44:07;93966.28;;;15.58;60.63
28911;BME280;16028;42.642;23.310;2023-04-23T09:46:35;93960.88;;;15.60;57.21
28911;BME280;16028;42.642;23.310;2023-04-23T09:49:03;93961.16;;;15.50;57.45
28911;BME280;16028;42.642;23.310;2023-04-23T09:51:32;93954.44;;;15.48;59.23
28911;BME280;16028;42.642;23.310;2023-04-23T09:54:00;93957.38;;;15.45;59.21
28911;BME280;16028;42.642;23.310;2023-04-23T09:56:30;93954.94;;;15.43;60.07
28911;BME280;16028;42.642;23.310;2023-04-23T09:58:57;93945.81;;;15.39;58.11
28911;BME280;16028;42.642;23.310;2023-04-23T10:01:27;93951.13;;;15.31;58.93
28911;BME280;16028;42.642;23.310;2023-04-23T10:03:55;93941.06;;;15.20;58.95
28911;BME280;16028;42.642;23.310;2023-04-23T10:06:27;93944.66;;;15.19;59.69
28911;BME280;16028;42.642;23.310;2023-04-23T10:08:57;93944.03;;;15.17;61.59
28911;BME280;16028;42.642;23.310;2023-04-23T10:11:24;93943.63;;;15.28;58.30
28911;BME280;16028;42.642;23.310;2023-04-23T10:13:52;93933.06;;;15.36;57.96
28911;BME280;16028;42.642;23.310;2023-04-23T10:16:20;93932.88;;;15.38;58.01
28911;BME280;16028;42.642;23.310;2023-04-23T10:18:48;93922.09;;;15.55;57.53
28911;BME280;16028;42.642;23.310;2023-04-23T10:21:16;93926.34;;;15.56;55.90
28911;BME280;16028;42.642;23.310;2023-04-23T10:23:45;93923.25;;;15.53;56.21
28911;BME280;16028;42.642;23.310;2023-04-23T10:26:14;93915.66;;;15.58;57.08
28911;BME280;16028;42.642;23.310;2023-04-23T10:28:46;93910.88;;;15.76;55.66
28911;BME280;16028;42.642;23.310;2023-04-23T10:31:14;93903.16;;;15.89;55.00
28911;BME280;16028;42.642;23.310;2023-04-23T10:33:41;93906.09;;;15.94;58.16
28911;BME280;16028;42.642;23.310;2023-04-23T10:36:10;93907.06;;;16.08;54.72
28911;BME280;16028;42.642;23.310;2023-04-23T10:38:37;93901.34;;;16.19;52.25
28911;BME280;16028;42.642;23.310;2023-04-23T10:41:06;93904.44;;;16.08;57.36
28911;BME280;16028;42.642;23.310;2023-04-23T10:43:34;93893.91;;;16.22;54.29
28911;BME280;16028;42.642;23.310;2023-04-23T10:46:05;93893.16;;;16.28;54.85
28911;BME280;16028;42.642;23.310;2023-04-23T10:49:04;93892.06;;;16.37;52.96
28911;BME280;16028;42.642;23.310;2023-04-23T10:51:35;93883.69;;;16.49;54.46
28911;BME280;16028;42.642;23.310;2023-04-23T10:54:02;93881.69;;;16.65;52.04
28911;BME280;16028;42.642;23.310;2023-04-23T10:56:30;93877.28;;;16.72;53.66
28911;BME280;16028;42.642;23.310;2023-04-23T10:58:57;93878.50;;;16.91;48.66
28911;BME280;16028;42.642;23.310;2023-04-23T11:01:24;93869.78;;;16.90;49.12
28911;BME280;16028;42.642;23.310;2023-04-23T11:03:51;93863.50;;;16.91;51.74
28911;BME280;16028;42.642;23.310;2023-04-23T11:06:49;93864.38;;;16.99;51.32
28911;BME280;16028;42.642;23.310;2023-04-23T11:09:47;93859.78;;;17.28;46.31
28911;BME280;16028;42.642;23.310;2023-04-23T11:12:30;93857.69;;;17.24;49.66
28911;BME280;16028;42.642;23.310;2023-04-23T11:15:11;93859.00;;;17.34;48.39
28911;BME280;16028;42.642;23.310;2023-04-23T11:18:11;93856.16;;;17.36;44.53
28911;BME280;16028;42.642;23.310;2023-04-23T11:20:38;93852.06;;;17.27;46.50
28911;BME280;16028;42.642;23.310;2023-04-23T11:23:07;93846.25;;;17.31;50.28
28911;BME280;16028;42.642;23.310;2023-04-23T11:25:34;93847.44;;;17.57;49.63
28911;BME280;16028;42.642;23.310;2023-04-23T11:28:01;93840.84;;;17.67;49.51
28911;BME280;16028;42.642;23.310;2023-04-23T11:30:28;93841.56;;;17.95;42.70
28911;BME280;16028;42.642;23.310;2023-04-23T11:32:59;93837.69;;;17.91;42.81
28911;BME280;16028;42.642;23.310;2023-04-23T11:35:26;93826.09;;;17.79;43.10
28911;BME280;16028;42.642;23.310;2023-04-23T11:37:55;93821.63;;;17.73;49.31
28911;BME280;16028;42.642;23.310;2023-04-23T11:40:23;93826.09;;;17.79;44.02
28911;BME280;16028;42.642;23.310;2023-04-23T11:42:51;93825.47;;;17.77;44.86
28911;BME280;16028;42.642;23.310;2023-04-23T11:45:19;93818.09;;;18.01;46.78
28911;BME280;16028;42.642;23.310;2023-04-23T11:47:48;93816.97;;;18.29;44.35
28911;BME280;16028;42.642;23.310;2023-04-23T11:50:18;93822.06;;;18.44;42.95
28911;BME280;16028;42.642;23.310;2023-04-23T11:52:46;93821.09;;;18.52;47.65
28911;BME280;16028;42.642;23.310;2023-04-23T11:55:13;93815.25;;;18.69;44.99
28911;BME280;16028;42.642;23.310;2023-04-23T11:57:42;93806.53;;;18.88;42.49
28911;BME280;16028;42.642;23.310;2023-04-23T12:00:14;93804.09;;;18.93;38.89
28911;BME280;16028;42.642;23.310;2023-04-23T12:02:51;93796.19;;;18.80;41.43
28911;BME280;16028;42.642;23.310;2023-04-23T12:05:20;93798.22;;;18.85;40.32
28911;BME280;16028;42.642;23.310;2023-04-23T12:07:48;93795.59;;;18.78;42.66
28911;BME280;16028;42.642;23.310;2023-04-23T12:10:16;93792.34;;;18.89;38.89
28911;BME280;16028;42.642;23.310;2023-04-23T12:12:48;93797.41;;;18.91;38.51
28911;BME280;16028;42.642;23.310;2023-04-23T12:15:15;93793.97;;;18.90;38.60
28911;BME280;16028;42.642;23.310;2023-04-23T12:17:41;93793.31;;;19.15;40.27
28911;BME280;16028;42.642;23.310;2023-04-23T12:20:09;93791.88;;;19.32;35.61
28911;BME280;16028;42.642;23.310;2023-04-23T12:22:38;93784.56;;;19.47;39.94
28911;BME280;16028;42.642;23.310;2023-04-23T12:25:06;93784.19;;;19.43;35.83
28911;BME280;16028;42.642;23.310;2023-04-23T12:27:38;93778.69;;;19.32;36.17
28911;BME280;16028;42.642;23.310;2023-04-23T12:30:07;93778.31;;;19.22;33.47
28911;BME280;16028;42.642;23.310;2023-04-23T12:32:36;93777.13;;;18.91;31.68
28911;BME280;16028;42.642;23.310;2023-04-23T12:35:03;93775.72;;;18.76;32.01
28911;BME280;16028;42.642;23.310;2023-04-23T12:37:34;93783.16;;;18.46;35.23
28911;BME280;16028;42.642;23.310;2023-04-23T12:40:02;93776.88;;;18.34;36.71
28911;BME280;16028;42.642;23.310;2023-04-23T12:42:31;93778.47;;;18.28;36.79
28911;BME280;16028;42.642;23.310;2023-04-23T12:45:06;93780.50;;;18.26;35.52
28911;BME280;16028;42.642;23.310;2023-04-23T12:47:34;93776.84;;;18.21;36.59
28911;BME280;16028;42.642;23.310;2023-04-23T12:50:01;93775.84;;;18.22;38.08
28911;BME280;16028;42.642;23.310;2023-04-23T12:52:30;93781.50;;;18.32;37.92
28911;BME280;16028;42.642;23.310;2023-04-23T12:54:56;93775.44;;;18.31;39.45
28911;BME280;16028;42.642;23.310;2023-04-23T12:57:25;93774.41;;;18.32;38.37
28911;BME280;16028;42.642;23.310;2023-04-23T12:59:53;93774.66;;;18.37;36.55